Time;durP1;ratioP1;P1;durP2;ratioP2;P2;SDS_P1;SDS_P2;PMS_P1;PMS_P2;Temp;Humidity;BMP_temperature;BMP_pressure;BME280_temperature;BME280_humidity;BME280_pressure;Samples;Min_cycle;Max_cycle;Signal;HPM_P1;HPM_P2
2021/06/04 00:00:59;;;;;;;5.80;4.95;;;17.70;99.90;;;;;;6284875;28;20510;-78
2021/06/04 00:04:00;;;;;;;7.00;5.22;;;17.60;99.90;;;;;;6301114;28;20040;-77
2021/06/04 00:07:01;;;;;;;7.45;5.60;;;;;;;;;;6301059;28;20495;-78
2021/06/04 00:10:03;;;;;;;7.38;5.35;;;17.50;99.90;;;;;;6301247;28;20041;-77
2021/06/04 00:13:22;;;;;;;8.85;5.25;;;17.40;99.90;;;;;;6300332;28;20032;-78
2021/06/04 00:16:30;;;;;;;8.32;5.53;;;17.30;99.90;;;;;;6294922;28;20036;-78
2021/06/04 00:19:32;;;;;;;7.07;4.88;;;17.20;99.90;;;;;;6276241;28;20024;-78
2021/06/04 00:22:32;;;;;;;10.23;5.07;;;17.30;99.90;;;;;;6259700;28;20024;-78
2021/06/04 00:25:33;;;;;;;8.48;5.40;;;17.10;99.90;;;;;;6253263;28;20040;-78
2021/06/04 00:28:34;;;;;;;7.82;5.30;;;17.10;99.90;;;;;;6275956;28;20648;-79
2021/06/04 00:31:34;;;;;;;6.93;5.47;;;17.00;99.90;;;;;;6259880;28;20064;-78
2021/06/04 00:34:35;;;;;;;8.18;6.40;;;17.30;99.90;;;;;;6265072;28;20038;-78
2021/06/04 00:37:36;;;;;;;10.65;6.25;;;17.10;99.90;;;;;;6267033;28;20515;-79
2021/06/04 00:40:42;;;;;;;7.90;6.57;;;16.90;99.90;;;;;;6318596;28;20056;-79
2021/06/04 00:43:42;;;;;;;8.07;6.07;;;16.80;99.90;;;;;;6280098;28;20028;-78
2021/06/04 00:46:43;;;;;;;9.07;6.35;;;16.80;99.90;;;;;;6279560;28;20027;-78
2021/06/04 00:49:44;;;;;;;7.65;6.45;;;16.80;99.90;;;;;;6258834;28;20076;-78
2021/06/04 00:52:45;;;;;;;7.32;5.55;;;16.80;99.90;;;;;;6260034;28;20025;-78
2021/06/04 00:55:45;;;;;;;10.80;6.65;;;17.00;99.90;;;;;;6242754;28;20031;-78
2021/06/04 00:58:47;;;;;;;10.48;6.25;;;16.90;99.90;;;;;;6266748;28;20032;-78
2021/06/04 01:01:47;;;;;;;7.07;5.88;;;16.70;99.90;;;;;;6282906;28;20036;-77
2021/06/04 01:04:48;;;;;;;7.75;6.10;;;16.90;99.90;;;;;;6282534;28;20047;-78
2021/06/04 01:08:00;;;;;;;9.52;5.75;;;17.00;99.90;;;;;;6317651;28;20043;-78
2021/06/04 01:11:08;;;;;;;8.75;5.38;;;17.00;99.90;;;;;;6283750;28;20024;-78
2021/06/04 01:14:27;;;;;;;8.38;5.18;;;17.00;99.90;;;;;;6283211;28;20039;-78
2021/06/04 01:17:30;;;;;;;9.43;6.32;;;16.80;99.90;;;;;;6282722;28;20055;-79
2021/06/04 01:20:37;;;;;;;6.13;5.03;;;17.00;99.90;;;;;;6317575;28;20134;-78
2021/06/04 01:23:47;;;;;;;7.78;5.43;;;16.80;99.90;;;;;;6299908;28;20092;-79
2021/06/04 01:26:52;;;;;;;7.95;5.15;;;17.00;99.90;;;;;;6301879;28;20042;-78
2021/06/04 01:30:04;;;;;;;9.20;5.20;;;17.40;99.90;;;;;;6241778;28;20114;-78
2021/06/04 01:33:11;;;;;;;8.50;6.32;;;16.90;99.90;;;;;;6275308;28;20116;-78
2021/06/04 01:36:15;;;;;;;9.38;5.95;;;16.80;99.90;;;;;;6244053;28;20051;-79
2021/06/04 01:39:32;;;;;;;8.18;6.30;;;16.60;99.90;;;;;;6258063;28;20119;-78
2021/06/04 01:42:34;;;;;;;9.43;6.85;;;16.90;99.90;;;;;;6242729;28;20128;-78
2021/06/04 01:45:38;;;;;;;9.07;6.25;;;16.80;99.90;;;;;;6241975;28;20032;-79
2021/06/04 01:48:43;;;;;;;9.10;6.18;;;16.70;99.90;;;;;;6258545;28;20041;-79
2021/06/04 01:51:47;;;;;;;8.30;6.68;;;16.70;99.90;;;;;;6257923;28;20017;-78
2021/06/04 01:54:50;;;;;;;10.75;5.82;;;16.70;99.90;;;;;;6258261;28;20032;-79
2021/06/04 01:58:01;;;;;;;10.02;6.43;;;16.80;99.90;;;;;;6241980;28;20371;-78
2021/06/04 02:01:29;;;;;;;8.13;5.57;;;16.70;99.90;;;;;;6259353;28;20075;-78
2021/06/04 02:04:39;;;;;;;9.05;5.28;;;16.70;99.90;;;;;;6274779;28;20493;-79
2021/06/04 02:07:40;;;;;;;9.80;6.22;;;16.70;99.90;;;;;;6252400;28;20449;-78
2021/06/04 02:10:44;;;;;;;9.00;5.47;;;16.70;99.90;;;;;;6257756;28;20020;-78
2021/06/04 02:13:46;;;;;;;6.82;5.63;;;16.70;99.90;;;;;;6258271;28;20029;-79
2021/06/04 02:16:54;;;;;;;;;;;16.50;99.90;;;;;;6258877;28;20377;-78
2021/06/04 02:20:18;;;;;;;7.07;5.85;;;16.50;99.90;;;;;;6279669;28;19964;-77
2021/06/04 02:23:27;;;;;;;7.45;5.53;;;16.30;99.90;;;;;;6286193;28;20466;-78
2021/06/04 02:26:34;;;;;;;9.10;6.60;;;16.40;99.90;;;;;;6261726;28;20071;-78
2021/06/04 02:29:41;;;;;;;8.40;6.18;;;16.30;99.90;;;;;;6263079;28;20673;-78
2021/06/04 02:32:50;;;;;;;8.20;6.55;;;16.20;99.90;;;;;;6246554;28;20056;-77
2021/06/04 02:35:55;;;;;;;8.70;5.55;;;16.20;99.90;;;;;;6278597;28;20021;-78
2021/06/04 02:39:07;;;;;;;8.57;5.90;;;16.10;99.90;;;;;;6278488;28;20029;-79
2021/06/04 02:42:17;;;;;;;6.13;5.28;;;16.40;99.90;;;;;;6262760;28;20079;-78
2021/06/04 02:45:17;;;;;;;7.43;5.90;;;16.30;99.90;;;;;;6262126;28;20040;-78
2021/06/04 02:48:19;;;;;;;7.28;6.05;;;16.20;99.90;;;;;;6297641;28;20052;-78
2021/06/04 02:51:29;;;;;;;8.88;6.45;;;16.20;99.90;;;;;;6262864;28;20024;-78
2021/06/04 02:54:31;;;;;;;9.48;6.60;;;15.90;99.90;;;;;;6285910;28;20043;-78
2021/06/04 02:57:32;;;;;;;7.10;5.70;;;16.20;99.90;;;;;;6286282;28;20034;-79
2021/06/04 03:00:38;;;;;;;8.55;5.65;;;16.20;99.90;;;;;;6268843;28;20028;-78
2021/06/04 03:03:41;;;;;;;7.57;6.18;;;16.30;99.90;;;;;;6279003;28;20021;-79
2021/06/04 03:06:45;;;;;;;9.68;6.47;;;16.30;99.90;;;;;;6261634;28;20043;-78
2021/06/04 03:09:45;;;;;;;8.80;7.65;;;16.30;99.90;;;;;;6246453;28;20100;-78
2021/06/04 03:12:47;;;;;;;7.38;5.90;;;16.10;99.90;;;;;;6252812;28;20054;-78
2021/06/04 03:15:49;;;;;;;6.75;5.60;;;16.40;99.90;;;;;;6302646;28;20043;-78
2021/06/04 03:18:53;;;;;;;7.30;6.10;;;16.40;99.90;;;;;;6302162;28;20020;-78
2021/06/04 03:21:57;;;;;;;8.35;6.13;;;16.40;99.90;;;;;;6279593;28;20115;-77
2021/06/04 03:25:00;;;;;;;6.75;5.30;;;16.40;99.90;;;;;;6277151;28;20047;-78
2021/06/04 03:28:01;;;;;;;7.50;5.50;;;16.40;99.90;;;;;;6260914;28;20078;-78
2021/06/04 03:31:01;;;;;;;6.85;6.15;;;16.60;99.90;;;;;;6277328;28;20036;-78
2021/06/04 03:34:02;;;;;;;7.88;5.90;;;16.40;99.90;;;;;;6260657;28;20035;-78
2021/06/04 03:37:03;;;;;;;11.43;6.50;;;16.50;99.90;;;;;;6248870;28;20024;-78
2021/06/04 03:40:06;;;;;;;7.75;6.28;;;16.30;99.90;;;;;;6295846;28;20434;-78
2021/06/04 03:43:08;;;;;;;10.00;6.25;;;16.20;99.90;;;;;;6244536;28;20045;-76
2021/06/04 03:46:09;;;;;;;10.68;6.32;;;16.30;99.90;;;;;;6243946;28;20055;-78
2021/06/04 03:49:10;;;;;;;7.53;6.80;;;16.30;99.90;;;;;;6259607;28;20037;-78
2021/06/04 03:52:11;;;;;;;9.20;5.85;;;16.40;99.90;;;;;;6260447;28;20095;-79
2021/06/04 03:55:14;;;;;;;7.83;5.20;;;16.40;99.90;;;;;;6262175;28;20031;-78
2021/06/04 03:58:14;;;;;;;5.93;5.32;;;16.50;99.90;;;;;;6268050;28;20731;-78
2021/06/04 04:01:26;;;;;;;7.07;5.72;;;16.50;99.90;;;;;;6284720;28;20035;-78
2021/06/04 04:04:27;;;;;;;8.65;6.18;;;;;;;;;;6264890;28;20032;-79
2021/06/04 04:07:29;;;;;;;8.40;6.32;;;16.60;99.90;;;;;;6295841;28;20036;-78
2021/06/04 04:10:29;;;;;;;8.40;5.87;;;16.70;99.90;;;;;;6260216;28;20081;-78
2021/06/04 04:13:30;;;;;;;8.35;5.63;;;16.60;99.90;;;;;;6259817;28;20024;-78
2021/06/04 04:16:31;;;;;;;7.18;5.85;;;;;;;;;;6260122;28;20034;-79
2021/06/04 04:19:32;;;;;;;8.98;5.57;;;16.70;99.90;;;;;;6276312;28;20051;-79
2021/06/04 04:22:33;;;;;;;8.50;6.38;;;17.10;99.90;;;;;;6259639;28;20025;-78
2021/06/04 04:25:36;;;;;;;8.50;5.90;;;16.90;99.90;;;;;;6294285;28;20036;-79
2021/06/04 04:28:37;;;;;;;6.82;5.57;;;16.90;99.90;;;;;;6243131;28;20035;-80
2021/06/04 04:31:44;;;;;;;8.23;5.38;;;17.00;99.90;;;;;;6242994;28;20037;-81
2021/06/04 04:34:45;;;;;;;6.68;5.43;;;17.00;99.90;;;;;;6276456;28;20490;-79
2021/06/04 04:37:46;;;;;;;8.80;5.82;;;17.10;99.90;;;;;;6259223;28;20025;-79
2021/06/04 04:40:47;;;;;;;9.05;6.43;;;17.10;99.90;;;;;;6282845;28;20040;-80
2021/06/04 04:43:50;;;;;;;10.13;6.03;;;17.10;99.90;;;;;;6283572;28;20122;-80
2021/06/04 04:46:50;;;;;;;5.82;5.22;;;17.20;99.90;;;;;;6283739;28;20032;-79
2021/06/04 04:49:51;;;;;;;7.93;5.50;;;17.20;99.90;;;;;;6300105;28;20417;-79
2021/06/04 04:52:52;;;;;;;7.90;5.72;;;17.30;99.90;;;;;;6283177;28;20051;-79
2021/06/04 04:55:53;;;;;;;6.80;5.53;;;17.30;99.90;;;;;;6282985;28;20032;-80
2021/06/04 04:58:53;;;;;;;8.13;5.68;;;17.50;99.90;;;;;;6282776;28;20385;-80
2021/06/04 05:01:54;;;;;;;8.25;5.28;;;17.60;99.90;;;;;;6283309;28;20024;-81
2021/06/04 05:04:54;;;;;;;7.18;5.50;;;17.60;99.90;;;;;;6299565;28;20035;-81
2021/06/04 05:07:55;;;;;;;7.53;5.53;;;17.70;99.90;;;;;;6286333;28;20021;-79
2021/06/04 05:10:56;;;;;;;8.90;5.93;;;17.90;99.90;;;;;;6275184;28;20320;-79
2021/06/04 05:13:57;;;;;;;7.30;5.35;;;17.80;99.90;;;;;;6306451;28;20051;-79
2021/06/04 05:16:57;;;;;;;7.25;5.68;;;18.40;99.90;;;;;;6283003;28;20032;-77
2021/06/04 05:19:58;;;;;;;7.82;6.18;;;18.60;99.90;;;;;;6299495;28;20086;-79
2021/06/04 05:23:00;;;;;;;7.53;6.10;;;19.00;99.90;;;;;;6299749;28;20546;-77
2021/06/04 05:26:01;;;;;;;8.40;5.85;;;19.30;99.90;;;;;;6317386;28;20035;-79
2021/06/04 05:29:02;;;;;;;10.45;5.60;;;19.60;99.90;;;;;;6259107;28;20031;-82
2021/06/04 05:32:04;;;;;;;9.10;5.63;;;19.70;99.90;;;;;;6258155;28;20481;-84
2021/06/04 05:35:05;;;;;;;7.17;5.90;;;;;;;;;;6241940;28;20056;-82
2021/06/04 05:38:06;;;;;;;8.25;6.07;;;;;;;;;;6244550;28;20148;-82
2021/06/04 05:41:07;;;;;;;7.85;6.25;;;;;;;;;;6300681;28;20089;-82
2021/06/04 05:44:08;;;;;;;7.47;6.68;;;;;;;;;;6282449;28;20127;-83
2021/06/04 05:47:10;;;;;;;9.23;6.78;;;20.60;99.90;;;;;;6294143;28;20592;-88
2021/06/04 05:50:14;;;;;;;7.18;5.95;;;21.20;99.90;;;;;;6257980;28;20052;-82
2021/06/04 05:53:16;;;;;;;9.52;6.28;;;21.10;99.90;;;;;;6261445;28;20078;-85
2021/06/04 05:56:18;;;;;;;7.97;6.03;;;21.40;96.40;;;;;;6266747;28;20032;-82
2021/06/04 05:59:18;;;;;;;7.43;5.90;;;21.40;96.40;;;;;;6288098;28;20035;-84
2021/06/04 06:02:19;;;;;;;8.13;6.28;;;20.90;97.00;;;;;;6275602;28;20043;-85
2021/06/04 06:05:20;;;;;;;6.85;5.63;;;21.30;97.60;;;;;;6262400;28;20114;-80
2021/06/04 06:08:20;;;;;;;7.85;6.43;;;21.20;97.50;;;;;;6246493;28;20028;-81
2021/06/04 06:11:24;;;;;;;8.60;6.63;;;21.30;98.20;;;;;;6262384;28;20056;-79
2021/06/04 06:14:25;;;;;;;9.23;5.93;;;21.50;97.80;;;;;;6247159;28;20425;-82
2021/06/04 06:17:26;;;;;;;7.45;5.55;;;22.10;97.00;;;;;;6246007;28;20108;-82
2021/06/04 06:20:32;;;;;;;8.85;5.68;;;23.00;96.20;;;;;;6282576;28;20032;-83
2021/06/04 06:23:34;;;;;;;9.32;5.43;;;23.90;95.20;;;;;;6287386;28;20063;-86
2021/06/04 06:26:36;;;;;;;7.28;4.68;;;24.00;92.80;;;;;;6245957;28;20043;-85
2021/06/04 06:29:37;;;;;;;6.60;5.22;;;24.60;91.30;;;;;;6247923;28;20070;-81
2021/06/04 06:32:38;;;;;;;9.27;5.75;;;24.20;91.00;;;;;;6255397;28;20027;-87
2021/06/04 06:35:42;;;;;;;6.32;4.60;;;24.00;91.50;;;;;;6273476;28;20064;-87
2021/06/04 06:38:43;;;;;;;9.60;4.93;;;24.10;91.80;;;;;;6274019;28;20634;-87
2021/06/04 06:41:44;;;;;;;5.60;4.60;;;24.30;91.00;;;;;;6247635;28;20052;-85
2021/06/04 06:44:45;;;;;;;8.65;5.03;;;;;;;;;;6246344;28;20051;-85
2021/06/04 06:47:45;;;;;;;6.93;5.67;;;24.20;91.40;;;;;;6274934;28;20094;-89
2021/06/04 06:50:46;;;;;;;6.83;5.37;;;24.10;91.80;;;;;;6254427;28;20021;-88
2021/06/04 06:53:47;;;;;;;8.63;5.13;;;24.00;92.90;;;;;;6252722;28;20043;-84
2021/06/04 06:56:51;;;;;;;6.80;4.90;;;23.80;93.60;;;;;;6264301;28;20454;-87
2021/06/04 06:59:51;;;;;;;8.18;5.50;;;23.80;93.80;;;;;;6245595;28;20028;-84
2021/06/04 07:02:52;;;;;;;11.90;4.90;;;23.70;95.40;;;;;;6256321;28;20028;-90
2021/06/04 07:05:53;;;;;;;9.50;5.07;;;23.60;94.40;;;;;;6250869;28;20535;-89
2021/06/04 07:08:54;;;;;;;5.77;4.30;;;23.70;92.80;;;;;;6253736;28;20029;-89
2021/06/04 07:11:58;;;;;;;6.70;4.85;;;23.90;93.00;;;;;;6247874;28;20032;-91
2021/06/04 07:14:59;;;;;;;21.02;6.85;;;;;;;;;;6240396;28;20032;-89
2021/06/04 07:18:01;;;;;;;12.10;4.80;;;22.40;90.90;;;;;;6264835;28;20028;-86
2021/06/04 07:21:01;;;;;;;5.97;5.13;;;24.50;91.90;;;;;;6265813;28;20039;-81
2021/06/04 07:24:02;;;;;;;8.33;4.70;;;24.40;97.20;;;;;;6256406;28;20104;-84
2021/06/04 07:27:03;;;;;;;5.55;4.57;;;24.50;91.70;;;;;;6277305;28;20032;-80
2021/06/04 07:30:05;;;;;;;7.80;5.10;;;24.50;91.10;;;;;;6278288;28;20024;-83
2021/06/04 07:33:15;;;;;;;4.85;4.35;;;24.60;90.10;;;;;;6242603;28;20055;-79
2021/06/04 07:36:18;;;;;;;5.45;4.10;;;24.70;90.50;;;;;;6268235;28;20572;-80
2021/06/04 07:39:21;;;;;;;7.47;4.30;;;24.80;89.50;;;;;;6258726;28;20110;-79
2021/06/04 07:42:22;;;;;;;8.48;4.32;;;24.70;84.10;;;;;;6277416;28;20127;-81
2021/06/04 07:45:24;;;;;;;4.97;4.20;;;24.70;84.30;;;;;;6271841;28;20036;-83
2021/06/04 07:48:24;;;;;;;6.30;4.25;;;24.80;83.60;;;;;;6243469;28;20059;-83
2021/06/04 07:51:28;;;;;;;8.70;4.47;;;25.00;79.20;;;;;;6243634;28;20470;-83
2021/06/04 07:54:30;;;;;;;6.30;4.53;;;24.90;91.60;;;;;;6243898;28;20144;-83
2021/06/04 07:57:31;;;;;;;;;;;24.80;80.50;;;;;;6243859;28;20123;-83
2021/06/04 08:00:31;;;;;;;7.18;4.43;;;25.20;81.90;;;;;;6294314;28;19915;-84
2021/06/04 08:03:34;;;;;;;7.87;4.57;;;25.30;82.20;;;;;;6243592;28;20021;-83
2021/06/04 08:06:35;;;;;;;6.60;4.22;;;;;;;;;;6260171;28;20043;-84
2021/06/04 08:09:37;;;;;;;5.37;4.67;;;28.10;73.40;;;;;;6249724;28;20033;-85
2021/06/04 08:12:38;;;;;;;5.15;4.03;;;29.00;72.60;;;;;;6261122;28;20686;-88
2021/06/04 08:15:40;;;;;;;6.63;4.28;;;29.60;64.50;;;;;;6247339;28;20020;-84
2021/06/04 08:18:42;;;;;;;6.75;4.50;;;29.90;65.50;;;;;;6251155;28;20037;-88
2021/06/04 08:22:23;;;;;;;5.45;3.85;;;30.30;75.70;;;;;;6260439;28;20035;-92
2021/06/04 08:25:28;;;;;;;5.20;4.17;;;33.90;64.10;;;;;;6280236;28;20409;-88
2021/06/04 08:31:49;;;;;;;5.65;4.53;;;30.00;59.90;;;;;;6274432;28;20494;-86
2021/06/04 08:34:49;;;;;;;5.32;4.43;;;30.00;72.20;;;;;;6261547;28;20473;-89
2021/06/04 08:38:30;;;;;;;5.57;4.10;;;30.50;74.10;;;;;;6256770;28;20024;-91
2021/06/04 08:41:40;;;;;;;11.83;4.80;;;30.50;58.30;;;;;;6157320;28;20136;-89
2021/06/04 08:45:08;;;;;;;5.60;3.80;;;30.30;58.40;;;;;;6171039;28;20089;-91
2021/06/04 08:48:18;;;;;;;4.70;3.90;;;28.90;77.10;;;;;;6169210;28;20467;-91
2021/06/04 08:51:21;;;;;;;6.07;4.50;;;28.30;80.80;;;;;;6162822;28;20034;-88
2021/06/04 08:54:39;;;;;;;4.95;4.38;;;28.00;82.00;;;;;;6170023;28;20023;-88
2021/06/04 08:57:40;;;;;;;5.82;4.15;;;;;;;;;;6157666;28;20089;-89
2021/06/04 09:00:43;;;;;;;8.57;4.32;;;;;;;;;;6163334;28;20034;-90
2021/06/04 09:04:11;;;;;;;7.25;3.75;;;29.60;70.20;;;;;;6157184;28;20054;-89
2021/06/04 09:07:12;;;;;;;6.28;4.20;;;;;;;;;;6158681;28;20120;-89
2021/06/04 09:10:54;;;;;;;5.55;4.28;;;29.70;60.80;;;;;;6172937;28;20038;-91
2021/06/04 09:13:55;;;;;;;8.50;4.13;;;;;;;;;;6139645;28;20078;-88
2021/06/04 09:17:14;;;;;;;;;;;30.90;70.40;;;;;;6213517;28;20509;-88
2021/06/04 09:20:15;;;;;;;4.85;3.78;;;31.80;64.60;;;;;;6303455;28;19953;-86
2021/06/04 09:24:01;;;;;;;7.50;4.10;;;30.80;70.20;;;;;;6287662;28;20141;-92
2021/06/04 09:27:01;;;;;;;6.18;4.53;;;29.90;71.20;;;;;;6285559;28;20048;-86
2021/06/04 09:30:21;;;;;;;5.75;3.70;;;29.60;73.10;;;;;;6248119;28;20101;-89
2021/06/04 09:33:34;;;;;;;6.50;4.13;;;29.20;75.00;;;;;;6278447;28;20025;-84
2021/06/04 09:36:49;;;;;;;8.60;4.85;;;29.10;63.20;;;;;;6252499;28;20103;-90
2021/06/04 09:39:56;;;;;;;10.32;4.40;;;28.50;79.80;;;;;;6255346;28;20547;-88
2021/06/04 09:42:59;;;;;;;5.63;4.43;;;28.50;65.40;;;;;;6265105;28;20035;-86
2021/06/04 09:46:02;;;;;;;5.50;4.60;;;28.40;67.10;;;;;;6248786;28;20024;-77
2021/06/04 09:49:02;;;;;;;7.55;4.28;;;27.80;69.90;;;;;;6294282;28;20029;-81
2021/06/04 09:52:29;;;;;;;6.73;4.10;;;27.40;71.00;;;;;;6260675;28;20032;-84
2021/06/04 09:55:31;;;;;;;5.55;4.00;;;26.90;69.80;;;;;;6294116;28;20024;-84
2021/06/04 09:58:53;;;;;;;6.78;4.43;;;26.10;77.70;;;;;;6232654;28;20024;-83
2021/06/04 10:01:54;;;;;;;4.97;4.57;;;26.10;75.00;;;;;;6268648;28;20063;-82
2021/06/04 10:05:11;;;;;;;5.70;4.65;;;25.80;77.10;;;;;;6280766;28;20051;-79
2021/06/04 10:08:27;;;;;;;8.23;4.90;;;25.50;74.70;;;;;;6292717;28;20028;-82
